Time;durP1;ratioP1;P1;durP2;ratioP2;P2;SDS_P1;SDS_P2;PMS_P1;PMS_P2;Temp;Humidity;BMP_temperature;BMP_pressure;BME280_temperature;BME280_humidity;BME280_pressure;Samples;Min_cycle;Max_cycle;Signal;HPM_P1;HPM_P2
2021/07/28 00:05:05;;;;;;;;;37.00;35.25;;;;;;;;8822487;40;10907;-58
2021/07/28 00:11:11;;;;;;;;;34.00;32.00;;;;;;;;8821427;40;10448;-58
2021/07/28 00:17:13;;;;;;;;;39.00;35.50;;;;;;;;8821913;40;10906;-57
2021/07/28 00:23:16;;;;;;;;;38.75;34.25;;;;;;;;8811745;40;11468;-58
2021/07/28 00:29:18;;;;;;;;;39.50;36.25;;;;;;;;8821216;40;11638;-58
2021/07/28 00:35:25;;;;;;;;;41.75;37.25;;;;;;;;8820652;40;10927;-58
2021/07/28 00:41:27;;;;;;;;;39.75;35.75;;;;;;;;8820625;40;11186;-59
2021/07/28 00:47:34;;;;;;;;;39.25;35.50;;;;;;;;8820701;40;11063;-58
2021/07/28 00:53:36;;;;;;;;;39.33;38.00;;;;;;;;8821498;40;10358;-57
2021/07/28 00:59:38;;;;;;;;;46.33;37.67;;;;;;;;8820771;40;10662;-59
2021/07/28 01:05:41;;;;;;;;;43.00;39.00;;;;;;;;8811219;40;10555;-58
2021/07/28 01:11:43;;;;;;;;;44.33;37.67;;;;;;;;8820999;40;10059;-56
2021/07/28 01:17:45;;;;;;;;;43.00;37.33;;;;;;;;8820371;40;10115;-57
2021/07/28 01:23:50;;;;;;;;;41.67;36.33;;;;;;;;8819936;40;10284;-57
2021/07/28 01:29:54;;;;;;;;;45.00;38.00;;;;;;;;8819836;40;10599;-57
2021/07/28 01:36:00;;;;;;;;;41.33;35.00;;;;;;;;8819462;40;10774;-58
2021/07/28 01:42:02;;;;;;;;;38.67;36.00;;;;;;;;8819474;40;10611;-57
2021/07/28 01:48:04;;;;;;;;;43.33;36.67;;;;;;;;8820404;40;11305;-58
2021/07/28 01:54:06;;;;;;;;;46.33;42.00;;;;;;;;8819452;40;10677;-58
2021/07/28 02:00:08;;;;;;;;;38.67;35.67;;;;;;;;8820712;40;10634;-57
2021/07/28 02:06:10;;;;;;;;;42.33;37.67;;;;;;;;8819744;40;10735;-58
2021/07/28 02:12:13;;;;;;;;;43.67;35.67;;;;;;;;8823101;40;10554;-58
2021/07/28 02:18:15;;;;;;;;;48.00;40.67;;;;;;;;8823177;40;10676;-58
2021/07/28 02:24:17;;;;;;;;;44.67;41.33;;;;;;;;8822452;40;10629;-57
2021/07/28 02:30:19;;;;;;;;;45.67;35.67;;;;;;;;8823305;40;10926;-57
2021/07/28 02:36:21;;;;;;;;;40.67;35.67;;;;;;;;8822735;40;10602;-58
2021/07/28 02:42:23;;;;;;;;;38.00;34.67;;;;;;;;8823369;40;11199;-58
2021/07/28 02:48:26;;;;;;;;;43.33;37.33;;;;;;;;8822197;40;10406;-58
2021/07/28 02:54:28;;;;;;;;;27.67;27.67;;;;;;;;8821192;40;10472;-57
2021/07/28 03:00:30;;;;;;;;;38.00;35.00;;;;;;;;8822606;40;10071;-58
2021/07/28 03:06:32;;;;;;;;;44.33;35.00;;;;;;;;8822108;40;10681;-57
2021/07/28 03:12:35;;;;;;;;;42.00;37.00;;;;;;;;8823181;40;10826;-58
2021/07/28 03:18:37;;;;;;;;;50.67;42.00;;;;;;;;8821585;40;11478;-58
2021/07/28 03:24:39;;;;;;;;;41.33;35.67;;;;;;;;8821713;40;10714;-58
2021/07/28 03:30:41;;;;;;;;;39.33;37.67;;;;;;;;8823054;40;10555;-58
2021/07/28 03:36:44;;;;;;;;;37.75;36.50;;;;;;;;8822109;40;10943;-57
2021/07/28 03:42:47;;;;;;;;;40.67;38.00;;;;;;;;8822601;40;10651;-58
2021/07/28 03:48:50;;;;;;;;;40.00;36.50;;;;;;;;8821484;40;11049;-58
2021/07/28 03:54:52;;;;;;;;;45.00;37.00;;;;;;;;8829740;40;10578;-58
2021/07/28 04:07:37;;;;;;;;;38.67;35.00;;;;;;;;8720234;40;11930;-66
2021/07/28 04:13:39;;;;;;;;;40.25;36.25;;;;;;;;8727114;40;10859;-68
2021/07/28 04:19:48;;;;;;;;;36.75;34.25;;;;;;;;8728128;40;11319;-67
2021/07/28 04:25:50;;;;;;;;;44.75;40.00;;;;;;;;8718937;40;10905;-68
2021/07/28 04:31:52;;;;;;;;;44.00;35.25;;;;;;;;8725172;40;11697;-67
2021/07/28 04:37:54;;;;;;;;;43.00;38.25;;;;;;;;8727511;40;10827;-68
2021/07/28 04:43:56;;;;;;;;;39.75;36.00;;;;;;;;8726902;40;11016;-67
2021/07/28 04:50:00;;;;;;;;;48.00;41.75;;;;;;;;8719535;40;10866;-67
2021/07/28 04:56:02;;;;;;;;;44.00;38.00;;;;;;;;8732149;40;10822;-67
2021/07/28 05:02:04;;;;;;;;;48.00;42.00;;;;;;;;8730820;40;10831;-68
2021/07/28 05:08:07;;;;;;;;;45.50;40.00;;;;;;;;8742364;40;10963;-68
2021/07/28 05:14:09;;;;;;;;;48.25;39.50;;;;;;;;8750497;40;10678;-68
2021/07/28 05:20:13;;;;;;;;;43.75;39.75;;;;;;;;8748258;40;10651;-67
2021/07/28 05:26:15;;;;;;;;;45.00;37.00;;;;;;;;8744992;40;11445;-69
2021/07/28 05:32:18;;;;;;;;;44.75;39.50;;;;;;;;8745866;40;10761;-70
2021/07/28 05:38:20;;;;;;;;;41.00;38.00;;;;;;;;8748533;40;10597;-68
2021/07/28 05:44:25;;;;;;;;;43.50;40.00;;;;;;;;8745162;40;11858;-68
2021/07/28 05:50:27;;;;;;;;;42.50;35.50;;;;;;;;8743102;40;10397;-69
2021/07/28 05:56:30;;;;;;;;;42.75;38.75;;;;;;;;8746076;40;10368;-70
2021/07/28 06:02:33;;;;;;;;;46.00;40.50;;;;;;;;8739001;40;10390;-70
2021/07/28 06:08:35;;;;;;;;;39.75;36.25;;;;;;;;8745686;40;10590;-68
2021/07/28 06:14:38;;;;;;;;;39.25;36.50;;;;;;;;8735061;40;10486;-70
2021/07/28 06:20:40;;;;;;;;;39.25;38.00;;;;;;;;8736518;40;10320;-69
2021/07/28 06:26:42;;;;;;;;;47.50;40.50;;;;;;;;8739532;40;10622;-70
2021/07/28 06:32:45;;;;;;;;;39.25;36.00;;;;;;;;8744458;40;10486;-70
2021/07/28 06:38:51;;;;;;;;;44.50;35.00;;;;;;;;8753204;40;10541;-70
2021/07/28 06:44:53;;;;;;;;;45.25;39.00;;;;;;;;8746626;40;10441;-68
2021/07/28 06:50:56;;;;;;;;;49.50;38.75;;;;;;;;8742229;40;10380;-68
2021/07/28 06:56:59;;;;;;;;;40.25;37.75;;;;;;;;8742797;40;10406;-71
2021/07/28 07:03:01;;;;;;;;;39.75;36.25;;;;;;;;8735447;40;10474;-68
2021/07/28 07:09:03;;;;;;;;;42.50;36.00;;;;;;;;8734536;40;10463;-69
2021/07/28 07:15:06;;;;;;;;;40.00;37.00;;;;;;;;8744437;40;10488;-70
2021/07/28 07:21:10;;;;;;;;;41.75;37.75;;;;;;;;8741752;40;10427;-69
2021/07/28 07:27:12;;;;;;;;;52.00;40.50;;;;;;;;8731936;40;10403;-69
2021/07/28 07:39:35;;;;;;;;;40.25;37.75;;;;;;;;8737709;40;10433;-68
2021/07/28 07:45:38;;;;;;;;;36.50;34.25;;;;;;;;8741138;40;10448;-69
2021/07/28 07:51:40;;;;;;;;;25.50;24.50;;;;;;;;8744013;40;10546;-69
2021/07/28 07:57:42;;;;;;;;;32.75;31.00;;;;;;;;8740400;40;10325;-69
2021/07/28 08:03:44;;;;;;;;;39.00;35.00;;;;;;;;8744882;40;10663;-69
2021/07/28 08:09:46;;;;;;;;;30.00;29.75;;;;;;;;8743430;40;10439;-69
2021/07/28 08:15:48;;;;;;;;;31.75;31.75;;;;;;;;8732631;40;10674;-69
2021/07/28 08:21:51;;;;;;;;;30.00;28.75;;;;;;;;8741317;40;10414;-71
2021/07/28 08:27:56;;;;;;;;;29.25;27.75;;;;;;;;8746476;40;10611;-69
2021/07/28 08:33:59;;;;;;;;;29.50;28.00;;;;;;;;8727432;40;10419;-69
2021/07/28 08:40:21;;;;;;;;;27.50;27.50;;;;;;;;8734804;40;10444;-69
2021/07/28 08:46:27;;;;;;;;;34.25;33.75;;;;;;;;8743695;40;10691;-70
2021/07/28 08:52:33;;;;;;;;;36.75;34.50;;;;;;;;8725296;40;10379;-69
2021/07/28 08:58:35;;;;;;;;;28.50;28.50;;;;;;;;8742105;40;10421;-71
2021/07/28 09:04:40;;;;;;;;;27.25;23.25;;;;;;;;8737987;40;10452;-69
2021/07/28 09:10:54;;;;;;;;;30.75;28.75;;;;;;;;8742153;40;10421;-70
2021/07/28 09:17:23;;;;;;;;;24.25;23.00;;;;;;;;8737337;40;10682;-67
2021/07/28 09:23:34;;;;;;;;;24.00;23.50;;;;;;;;8732130;40;11763;-69
2021/07/28 09:29:39;;;;;;;;;27.75;27.75;;;;;;;;8733095;40;10703;-69
2021/07/28 09:35:47;;;;;;;;;27.75;25.00;;;;;;;;8724452;40;10631;-71
2021/07/28 09:41:53;;;;;;;;;29.25;27.50;;;;;;;;8726149;40;10427;-70
2021/07/28 09:47:57;;;;;;;;;31.00;30.25;;;;;;;;8724588;40;10384;-71
2021/07/28 09:54:05;;;;;;;;;28.50;27.75;;;;;;;;8752979;40;10437;-70
2021/07/28 10:00:08;;;;;;;;;32.00;32.00;;;;;;;;8731709;40;10450;-70
2021/07/28 10:06:39;;;;;;;;;26.25;26.25;;;;;;;;8716816;40;10346;-69
2021/07/28 10:12:41;;;;;;;;;38.75;32.75;;;;;;;;8742424;40;10395;-69
2021/07/28 10:18:46;;;;;;;;;35.50;32.75;;;;;;;;8730828;40;10447;-70
2021/07/28 10:24:48;;;;;;;;;29.50;28.00;;;;;;;;8736477;40;10459;-70
2021/07/28 10:31:20;;;;;;;;;28.50;28.50;;;;;;;;8733808;40;10421;-71
2021/07/28 10:37:29;;;;;;;;;24.75;24.00;;;;;;;;8743017;40;10548;-68
2021/07/28 10:44:10;;;;;;;;;23.25;23.25;;;;;;;;8742320;40;10478;-71
2021/07/28 10:50:25;;;;;;;;;27.50;27.50;;;;;;;;8733532;40;10386;-69
2021/07/28 10:56:27;;;;;;;;;28.25;27.50;;;;;;;;8741578;40;10433;-71
2021/07/28 11:02:51;;;;;;;;;35.25;34.00;;;;;;;;8740575;40;10649;-71
2021/07/28 11:08:54;;;;;;;;;26.25;26.25;;;;;;;;8738400;40;10407;-70
2021/07/28 11:14:58;;;;;;;;;22.75;22.25;;;;;;;;8741589;40;10427;-69
2021/07/28 11:21:12;;;;;;;;;27.75;26.50;;;;;;;;8741764;40;10395;-69
2021/07/28 11:27:15;;;;;;;;;26.75;26.50;;;;;;;;8744870;40;10346;-69
2021/07/28 11:33:18;;;;;;;;;27.75;24.50;;;;;;;;8747196;40;10327;-67
2021/07/28 11:39:22;;;;;;;;;26.50;26.50;;;;;;;;8746745;40;10380;-69
2021/07/28 11:45:43;;;;;;;;;28.25;25.75;;;;;;;;8745133;40;10494;-68
2021/07/28 11:51:45;;;;;;;;;26.25;23.25;;;;;;;;8742744;40;12205;-67
2021/07/28 11:57:48;;;;;;;;;36.25;33.75;;;;;;;;8740199;40;10548;-66
2021/07/28 12:03:51;;;;;;;;;24.25;24.00;;;;;;;;8740841;40;10441;-71
2021/07/28 12:09:59;;;;;;;;;24.00;20.25;;;;;;;;8732313;40;10897;-68
2021/07/28 12:16:02;;;;;;;;;26.00;25.50;;;;;;;;8739404;40;10381;-68
2021/07/28 12:22:10;;;;;;;;;21.50;21.50;;;;;;;;8733851;40;10599;-68
2021/07/28 12:28:12;;;;;;;;;19.00;19.00;;;;;;;;8723751;40;10439;-68
2021/07/28 12:34:19;;;;;;;;;23.00;20.50;;;;;;;;8734352;40;10306;-69
2021/07/28 12:40:21;;;;;;;;;22.50;21.75;;;;;;;;8726095;40;10625;-67
2021/07/28 12:46:24;;;;;;;;;26.00;23.00;;;;;;;;8725501;40;10445;-67
2021/07/28 12:52:27;;;;;;;;;20.25;19.00;;;;;;;;8720648;40;10379;-68
2021/07/28 12:58:31;;;;;;;;;27.75;21.00;;;;;;;;8734818;40;10639;-66
2021/07/28 13:04:33;;;;;;;;;28.00;25.75;;;;;;;;8740542;40;10425;-68
2021/07/28 13:10:36;;;;;;;;;25.75;24.75;;;;;;;;8751545;40;10565;-69
2021/07/28 13:16:38;;;;;;;;;22.75;20.25;;;;;;;;8743274;40;10470;-68
2021/07/28 13:22:41;;;;;;;;;20.00;19.25;;;;;;;;8740150;40;10565;-68
2021/07/28 13:28:43;;;;;;;;;26.50;21.25;;;;;;;;8720452;40;10472;-68
2021/07/28 13:34:45;;;;;;;;;31.50;28.00;;;;;;;;8729773;40;10415;-68
2021/07/28 13:40:47;;;;;;;;;20.25;20.00;;;;;;;;8715097;40;10458;-70
2021/07/28 13:46:51;;;;;;;;;23.25;18.75;;;;;;;;8720972;40;10432;-68
2021/07/28 13:52:53;;;;;;;;;22.50;20.75;;;;;;;;8743641;40;10649;-69
2021/07/28 13:58:55;;;;;;;;;17.25;17.00;;;;;;;;8735000;40;10568;-68
2021/07/28 14:05:01;;;;;;;;;19.50;18.25;;;;;;;;8747618;40;10409;-68
2021/07/28 14:11:07;;;;;;;;;22.00;21.00;;;;;;;;8748690;40;10429;-67
2021/07/28 14:17:09;;;;;;;;;18.75;18.50;;;;;;;;8748513;40;10421;-66
2021/07/28 14:23:11;;;;;;;;;21.25;19.50;;;;;;;;8748528;40;10368;-68
2021/07/28 14:29:16;;;;;;;;;25.50;24.50;;;;;;;;8738484;40;10519;-67
2021/07/28 14:35:18;;;;;;;;;22.50;21.75;;;;;;;;8736236;40;12005;-67
2021/07/28 14:41:21;;;;;;;;;23.50;21.25;;;;;;;;8746120;40;10657;-66
2021/07/28 14:47:23;;;;;;;;;23.00;19.00;;;;;;;;8750098;40;10784;-68
2021/07/28 14:53:26;;;;;;;;;24.00;23.75;;;;;;;;8751406;40;10601;-67
2021/07/28 14:59:28;;;;;;;;;21.00;20.50;;;;;;;;8749293;40;10603;-65
2021/07/28 15:05:31;;;;;;;;;26.75;26.00;;;;;;;;8750107;40;10610;-68
2021/07/28 15:11:34;;;;;;;;;27.00;23.75;;;;;;;;8749005;40;10417;-68
2021/07/28 15:17:36;;;;;;;;;24.25;22.25;;;;;;;;8749247;40;10385;-69
2021/07/28 15:23:38;;;;;;;;;23.00;21.75;;;;;;;;8740296;40;10422;-67
2021/07/28 15:29:40;;;;;;;;;38.75;32.50;;;;;;;;8734815;40;10572;-67
2021/07/28 15:35:42;;;;;;;;;27.00;22.50;;;;;;;;8742428;40;10431;-68
2021/07/28 15:41:44;;;;;;;;;23.75;22.00;;;;;;;;8748251;40;10440;-68
2021/07/28 15:47:46;;;;;;;;;29.25;25.25;;;;;;;;8743862;40;11360;-66
2021/07/28 15:53:51;;;;;;;;;29.75;29.00;;;;;;;;8748824;40;10463;-68
2021/07/28 15:59:54;;;;;;;;;33.25;28.00;;;;;;;;8749372;40;10457;-66
2021/07/28 16:05:56;;;;;;;;;24.00;23.00;;;;;;;;8745821;40;10423;-66
2021/07/28 16:11:58;;;;;;;;;25.25;22.00;;;;;;;;8748799;40;10367;-67
2021/07/28 16:18:14;;;;;;;;;27.00;26.25;;;;;;;;8748704;40;10395;-68
2021/07/28 16:24:42;;;;;;;;;26.25;26.00;;;;;;;;8751587;40;10363;-67
2021/07/28 16:30:46;;;;;;;;;26.00;22.50;;;;;;;;8746472;40;10599;-67
2021/07/28 16:36:48;;;;;;;;;28.25;25.00;;;;;;;;8748240;40;10440;-66
2021/07/28 16:42:50;;;;;;;;;26.25;22.25;;;;;;;;8747838;40;10421;-68
2021/07/28 16:48:53;;;;;;;;;24.00;24.00;;;;;;;;8738851;40;10473;-65
2021/07/28 16:54:56;;;;;;;;;28.25;26.25;;;;;;;;8747289;40;10451;-67
2021/07/28 17:00:58;;;;;;;;;32.50;27.75;;;;;;;;8747697;40;10469;-67
2021/07/28 17:07:00;;;;;;;;;24.50;23.00;;;;;;;;8749232;40;10407;-67
2021/07/28 17:13:02;;;;;;;;;30.00;27.75;;;;;;;;8747362;40;10946;-67
2021/07/28 17:19:05;;;;;;;;;29.75;25.00;;;;;;;;8738599;40;10429;-67
2021/07/28 17:25:09;;;;;;;;;26.25;26.25;;;;;;;;8737822;40;10387;-68
2021/07/28 17:31:11;;;;;;;;;47.50;39.50;;;;;;;;8747257;40;10580;-66
2021/07/28 17:37:36;;;;;;;;;31.50;30.25;;;;;;;;8746893;40;11142;-67
2021/07/28 17:43:41;;;;;;;;;25.25;25.25;;;;;;;;8750560;40;10370;-67
2021/07/28 17:49:44;;;;;;;;;27.75;27.25;;;;;;;;8742428;40;11166;-67
2021/07/28 17:55:46;;;;;;;;;31.75;29.50;;;;;;;;8750459;40;10620;-67
2021/07/28 18:01:48;;;;;;;;;27.50;27.50;;;;;;;;8750661;40;10387;-67
2021/07/28 18:07:50;;;;;;;;;30.00;30.00;;;;;;;;8753690;40;10441;-66
2021/07/28 18:13:54;;;;;;;;;29.25;28.50;;;;;;;;8741910;40;10467;-67
2021/07/28 18:19:56;;;;;;;;;34.00;33.00;;;;;;;;8749865;40;10646;-67
2021/07/28 18:25:59;;;;;;;;;35.75;34.50;;;;;;;;8749593;40;10508;-68
2021/07/28 18:32:01;;;;;;;;;37.25;33.50;;;;;;;;8750871;40;10437;-66
2021/07/28 18:38:05;;;;;;;;;35.50;34.75;;;;;;;;8740229;40;10581;-67
2021/07/28 18:44:07;;;;;;;;;31.50;30.50;;;;;;;;8749300;40;10367;-68
2021/07/28 18:50:10;;;;;;;;;31.75;30.50;;;;;;;;8748737;40;10611;-68
2021/07/28 18:56:12;;;;;;;;;30.50;29.50;;;;;;;;8749247;40;10613;-67
2021/07/28 19:02:14;;;;;;;;;32.50;29.75;;;;;;;;8750100;40;10608;-67
2021/07/28 19:08:16;;;;;;;;;32.00;29.50;;;;;;;;8750043;40;10621;-65
2021/07/28 19:14:18;;;;;;;;;32.75;28.75;;;;;;;;8748919;40;10367;-67
2021/07/28 19:20:21;;;;;;;;;29.25;27.25;;;;;;;;8740071;40;11047;-67
2021/07/28 19:26:23;;;;;;;;;30.50;25.50;;;;;;;;8748159;40;11550;-68
2021/07/28 19:32:26;;;;;;;;;15.50;15.00;;;;;;;;8748841;40;10323;-65
2021/07/28 19:38:28;;;;;;;;;17.75;14.75;;;;;;;;8749729;40;10414;-66
2021/07/28 19:44:32;;;;;;;;;12.75;10.75;;;;;;;;8748880;40;10554;-66
2021/07/28 19:50:34;;;;;;;;;13.25;7.25;;;;;;;;8748991;40;10379;-67
2021/07/28 19:56:36;;;;;;;;;12.50;11.50;;;;;;;;8517603;40;10003001;-66
2021/07/28 20:02:43;;;;;;;;;11.25;11.25;;;;;;;;8749384;40;10737;-65
2021/07/28 20:08:45;;;;;;;;;14.25;12.25;;;;;;;;8504488;40;10000930;-67
2021/07/28 20:14:48;;;;;;;;;18.67;16.00;;;;;;;;8748205;40;10206;-67
2021/07/28 20:20:51;;;;;;;;;19.00;17.67;;;;;;;;8748311;40;9892;-68
2021/07/28 20:27:02;;;;;;;;;15.67;15.00;;;;;;;;8747770;40;10596;-67
2021/07/28 20:33:07;;;;;;;;;14.00;14.00;;;;;;;;8747908;40;10891;-66
2021/07/28 20:39:09;;;;;;;;;20.25;18.25;;;;;;;;8747764;40;11377;-67
2021/07/28 20:45:11;;;;;;;;;13.33;13.00;;;;;;;;8748178;40;10474;-66
2021/07/28 20:51:14;;;;;;;;;18.00;17.50;;;;;;;;8747963;40;10918;-67
2021/07/28 20:57:16;;;;;;;;;15.75;15.75;;;;;;;;8747531;40;10646;-66
2021/07/28 21:03:18;;;;;;;;;9.00;8.25;;;;;;;;8747246;40;10685;-67
2021/07/28 21:09:22;;;;;;;;;17.50;17.00;;;;;;;;8729894;40;10528;-68
2021/07/28 21:15:24;;;;;;;;;19.75;16.25;;;;;;;;8746414;40;10540;-66
2021/07/28 21:21:26;;;;;;;;;14.25;14.25;;;;;;;;8747483;40;10457;-67
2021/07/28 21:27:28;;;;;;;;;19.25;18.00;;;;;;;;8746760;40;10709;-66
2021/07/28 21:33:32;;;;;;;;;18.00;17.00;;;;;;;;8747234;40;10860;-66
2021/07/28 21:39:34;;;;;;;;;14.50;13.75;;;;;;;;8737768;40;10802;-67
2021/07/28 21:45:55;;;;;;;;;19.00;17.75;;;;;;;;8746913;40;10359;-68
2021/07/28 21:52:21;;;;;;;;;11.25;11.25;;;;;;;;8748635;40;10369;-66
2021/07/28 21:58:49;;;;;;;;;12.50;12.00;;;;;;;;8753047;40;10574;-66
2021/07/28 22:04:54;;;;;;;;;11.25;9.00;;;;;;;;8736312;40;10542;-66
2021/07/28 22:10:56;;;;;;;;;10.75;10.75;;;;;;;;8747395;40;10508;-67
2021/07/28 22:16:58;;;;;;;;;7.75;7.75;;;;;;;;8732366;40;10442;-67
2021/07/28 22:23:00;;;;;;;;;6.50;6.50;;;;;;;;8744407;40;10346;-66
2021/07/28 22:29:03;;;;;;;;;10.50;9.75;;;;;;;;8749875;40;10337;-66
2021/07/28 22:35:06;;;;;;;;;10.00;9.00;;;;;;;;8750088;40;10386;-66
2021/07/28 22:41:08;;;;;;;;;7.50;7.50;;;;;;;;8749559;40;11565;-66
2021/07/28 22:47:15;;;;;;;;;12.75;9.50;;;;;;;;8749423;40;10440;-66
2021/07/28 22:53:51;;;;;;;;;10.75;9.00;;;;;;;;8749236;40;10299;-66
2021/07/28 23:12:23;;;;;;;;;7.00;7.00;;;;;;;;8750186;40;10479;-67
2021/07/28 23:18:25;;;;;;;;;10.50;10.50;;;;;;;;8749032;40;11836;-66
2021/07/28 23:24:27;;;;;;;;;10.75;9.75;;;;;;;;8749038;40;10375;-65
2021/07/28 23:30:29;;;;;;;;;11.50;10.75;;;;;;;;8750123;40;10430;-66
2021/07/28 23:36:31;;;;;;;;;10.00;10.00;;;;;;;;8748234;40;10461;-66
2021/07/28 23:42:34;;;;;;;;;13.00;13.00;;;;;;;;8749071;40;10768;-65
2021/07/28 23:48:36;;;;;;;;;11.25;11.25;;;;;;;;8748542;40;10605;-66
2021/07/28 23:54:38;;;;;;;;;11.25;8.50;;;;;;;;8756486;40;10462;-66
